createdAt,value
2022-08-19T00:01:10.012Z,13.40
2022-08-19T00:03:40.195Z,14.30
2022-08-19T00:06:13.338Z,12.45
2022-08-19T00:08:49.314Z,12.65
2022-08-19T00:11:25.677Z,13.68
2022-08-19T00:13:57.576Z,14.02
2022-08-19T00:16:29.900Z,13.60
2022-08-19T00:19:00.675Z,14.15
2022-08-19T00:21:31.247Z,14.10
2022-08-19T00:24:03.977Z,13.95
2022-08-19T00:26:36.990Z,13.75
2022-08-19T00:29:08.826Z,14.75
2022-08-19T00:31:40.025Z,15.70
2022-08-19T00:34:13.452Z,15.18
2022-08-19T00:36:45.212Z,16.08
2022-08-19T00:39:21.571Z,15.43
2022-08-19T00:41:54.515Z,15.82
2022-08-19T00:44:29.740Z,15.63
2022-08-19T00:47:02.762Z,14.90
2022-08-19T00:49:40.234Z,15.93
2022-08-19T00:52:16.715Z,14.88
2022-08-19T00:54:52.643Z,15.88
2022-08-19T00:57:33.541Z,14.75
2022-08-19T01:00:05.655Z,15.95
2022-08-19T01:02:39.577Z,16.00
2022-08-19T01:05:16.075Z,15.75
2022-08-19T01:07:46.795Z,16.40
2022-08-19T01:10:24.170Z,17.25
2022-08-19T01:12:58.458Z,15.30
2022-08-19T01:15:35.256Z,15.70
2022-08-19T01:18:11.312Z,17.35
2022-08-19T01:20:42.565Z,16.27
2022-08-19T01:23:17.020Z,17.05
2022-08-19T01:25:54.705Z,15.77
2022-08-19T01:28:39.648Z,16.10
2022-08-19T01:31:26.692Z,15.52
2022-08-19T01:34:01.103Z,17.80
2022-08-19T01:36:36.212Z,17.13
2022-08-19T01:39:16.292Z,17.25
2022-08-19T01:41:46.407Z,15.00
2022-08-19T01:44:19.269Z,16.50
2022-08-19T01:46:52.109Z,16.55
2022-08-19T01:49:26.254Z,17.60
2022-08-19T01:51:57.323Z,16.60
2022-08-19T01:54:30.330Z,16.60
2022-08-19T01:57:08.498Z,18.50
2022-08-19T01:59:39.942Z,17.65
2022-08-19T02:02:11.478Z,18.55
2022-08-19T02:04:42.694Z,18.50
2022-08-19T02:07:12.999Z,18.90
2022-08-19T02:09:45.974Z,17.40
2022-08-19T02:12:17.447Z,18.38
2022-08-19T02:14:47.808Z,19.30
2022-08-19T02:17:18.769Z,18.95
2022-08-19T02:19:50.563Z,18.52
2022-08-19T02:22:20.928Z,19.60
2022-08-19T02:24:53.839Z,19.63
2022-08-19T02:27:24.718Z,18.75
2022-08-19T02:29:57.876Z,18.60
2022-08-19T02:32:28.335Z,18.52
2022-08-19T02:34:58.665Z,18.77
2022-08-19T02:37:41.609Z,18.20
2022-08-19T02:40:15.330Z,17.05
2022-08-19T02:42:48.442Z,18.27
2022-08-19T02:45:19.399Z,17.08
2022-08-19T02:47:49.624Z,16.15
2022-08-19T02:50:19.880Z,15.98
2022-08-19T02:52:50.065Z,16.25
2022-08-19T02:55:23.205Z,15.95
2022-08-19T02:57:53.970Z,16.90
2022-08-19T03:00:24.768Z,16.70
2022-08-19T03:02:57.078Z,16.85
2022-08-19T03:05:28.517Z,17.42
2022-08-19T03:08:19.444Z,18.20
2022-08-19T03:10:54.703Z,18.08
2022-08-19T03:13:25.107Z,18.85
2022-08-19T03:15:55.483Z,17.23
2022-08-19T03:18:25.780Z,18.27
2022-08-19T03:20:58.463Z,17.75
2022-08-19T03:23:29.074Z,17.25
2022-08-19T03:26:15.845Z,16.30
2022-08-19T03:28:58.173Z,16.30
2022-08-19T03:31:45.626Z,16.45
2022-08-19T03:34:28.916Z,16.25
2022-08-19T03:37:04.547Z,16.08
2022-08-19T03:39:34.975Z,17.65
2022-08-19T03:42:38.531Z,18.83
2022-08-19T03:45:02.704Z,18.02
2022-08-19T03:47:36.139Z,17.48
2022-08-19T03:50:07.883Z,18.05
2022-08-19T03:52:38.410Z,18.35
2022-08-19T03:55:12.381Z,18.27
2022-08-19T03:57:46.243Z,19.13
2022-08-19T04:00:19.316Z,17.70
2022-08-19T04:02:58.462Z,16.23
2022-08-19T04:05:32.225Z,16.20
2022-08-19T04:08:02.530Z,15.18
2022-08-19T04:10:32.718Z,16.50
2022-08-19T04:13:06.407Z,17.83
2022-08-19T04:15:40.528Z,18.73
2022-08-19T04:18:11.778Z,16.95
2022-08-19T04:20:50.894Z,17.33
2022-08-19T04:23:21.213Z,20.13
2022-08-19T04:25:51.591Z,18.85
2022-08-19T04:28:24.945Z,18.42
2022-08-19T04:30:59.015Z,17.90
2022-08-19T04:33:29.748Z,19.42
2022-08-19T04:36:01.251Z,20.10
2022-08-19T04:38:31.608Z,21.35
2022-08-19T04:41:14.225Z,22.33
2022-08-19T04:43:51.543Z,20.00
2022-08-19T04:46:40.293Z,21.30
2022-08-19T04:49:13.595Z,23.42
2022-08-19T04:51:48.249Z,25.30
2022-08-19T04:54:37.025Z,27.10
2022-08-19T04:57:11.413Z,25.67
2022-08-19T04:59:44.521Z,27.88
2022-08-19T05:02:14.831Z,28.83
2022-08-19T05:04:45.160Z,28.63
2022-08-19T05:07:18.866Z,28.73
2022-08-19T05:09:58.160Z,28.83
2022-08-19T05:12:30.434Z,27.60
2022-08-19T05:15:03.639Z,29.60
2022-08-19T05:17:38.695Z,29.52
2022-08-19T05:20:24.478Z,29.27
2022-08-19T05:22:55.094Z,30.08
2022-08-19T05:25:26.745Z,28.80
2022-08-19T05:27:57.084Z,29.83
2022-08-19T05:30:46.085Z,28.25
2022-08-19T05:33:17.048Z,29.50
2022-08-19T05:35:49.505Z,27.70
2022-08-19T05:38:23.753Z,29.95
2022-08-19T05:40:54.107Z,29.50
2022-08-19T05:43:24.389Z,29.98
2022-08-19T05:45:57.276Z,28.33
2022-08-19T05:48:27.568Z,29.50
2022-08-19T05:50:58.048Z,28.90
2022-08-19T05:53:28.232Z,28.63
2022-08-19T05:55:58.503Z,30.27
2022-08-19T05:58:29.136Z,28.67
2022-08-19T06:01:05.450Z,31.15
2022-08-19T06:03:39.001Z,29.63
2022-08-19T06:06:11.733Z,30.60
2022-08-19T06:08:43.962Z,31.75
2022-08-19T06:11:23.253Z,28.85
2022-08-19T06:14:00.220Z,32.75
2022-08-19T06:16:36.323Z,33.20
2022-08-19T06:19:11.118Z,32.40
2022-08-19T06:21:44.490Z,33.00
2022-08-19T06:24:18.317Z,34.13
2022-08-19T06:26:55.781Z,32.75
2022-08-19T06:29:34.189Z,47.03
2022-08-19T06:32:08.380Z,35.17
2022-08-19T06:34:41.459Z,35.83
2022-08-19T06:37:12.184Z,34.60
2022-08-19T06:39:46.222Z,36.00
2022-08-19T06:42:17.690Z,35.30
2022-08-19T06:44:53.597Z,35.50
2022-08-19T06:47:28.879Z,35.72
2022-08-19T06:50:03.322Z,37.60
2022-08-19T06:52:36.592Z,41.28
2022-08-19T06:55:09.354Z,35.47
2022-08-19T06:57:41.156Z,40.90
2022-08-19T07:00:14.857Z,41.20
2022-08-19T07:02:53.337Z,40.25
2022-08-19T07:05:27.966Z,38.33
2022-08-19T07:08:01.707Z,38.00
2022-08-19T07:10:36.107Z,37.47
2022-08-19T07:13:06.965Z,39.45
2022-08-19T07:15:38.327Z,36.78
2022-08-19T07:18:12.668Z,34.80
2022-08-19T07:20:44.089Z,33.08
2022-08-19T07:23:18.003Z,30.55
2022-08-19T07:25:51.011Z,41.03
2022-08-19T07:28:25.195Z,33.13
2022-08-19T07:30:58.089Z,24.38
2022-08-19T07:33:33.515Z,28.45
2022-08-19T07:36:03.807Z,25.38
2022-08-19T07:38:34.004Z,25.08
2022-08-19T07:41:05.039Z,25.40
2022-08-19T07:43:35.391Z,24.38
2022-08-19T07:49:01.868Z,27.48
2022-08-19T07:51:36.485Z,29.83
2022-08-19T07:54:08.071Z,32.67
2022-08-19T07:56:38.319Z,34.70
2022-08-19T07:59:10.141Z,34.15
2022-08-19T08:01:44.455Z,36.40
2022-08-19T08:04:30.468Z,38.78
2022-08-19T08:07:13.214Z,38.83
2022-08-19T08:09:50.066Z,36.50
2022-08-19T08:12:35.138Z,38.85
2022-08-19T08:15:12.965Z,38.20
2022-08-19T08:17:49.214Z,41.00
2022-08-19T08:20:24.495Z,40.90
2022-08-19T08:23:07.173Z,44.85
2022-08-19T08:25:39.830Z,44.08
2022-08-19T08:28:17.651Z,42.95
2022-08-19T08:30:50.861Z,43.83
2022-08-19T08:33:33.737Z,42.30
2022-08-19T08:36:11.922Z,46.17
2022-08-19T08:38:43.558Z,41.45
2022-08-19T08:41:31.959Z,41.70
2022-08-19T08:44:03.598Z,39.45
2022-08-19T08:46:46.456Z,35.42
2022-08-19T08:49:31.910Z,41.05
2022-08-19T08:52:09.811Z,38.10
2022-08-19T08:54:55.164Z,40.90
2022-08-19T08:57:37.004Z,38.00
2022-08-19T09:00:20.763Z,34.33
2022-08-19T09:02:51.864Z,38.42
2022-08-19T09:05:26.058Z,33.13
2022-08-19T09:08:15.340Z,33.50
2022-08-19T09:10:58.360Z,33.05
2022-08-19T09:13:42.497Z,31.10
2022-08-19T09:16:18.380Z,34.08
2022-08-19T09:18:55.800Z,33.05
2022-08-19T09:21:33.283Z,33.03
2022-08-19T09:24:08.247Z,31.30
2022-08-19T09:26:48.619Z,32.28
2022-08-19T09:29:23.964Z,30.02
2022-08-19T09:31:54.803Z,27.60
2022-08-19T09:34:25.865Z,24.77
2022-08-19T09:36:59.364Z,24.42
2022-08-19T09:39:35.895Z,25.45
2022-08-19T09:42:16.410Z,28.90
2022-08-19T09:45:00.487Z,23.92
2022-08-19T09:47:34.073Z,21.88
2022-08-19T09:50:04.400Z,20.25
2022-08-19T09:52:37.663Z,18.42
2022-08-19T09:55:14.392Z,19.48
2022-08-19T09:57:44.639Z,15.70
2022-08-19T10:00:16.300Z,16.73
2022-08-19T10:02:46.642Z,14.52
2022-08-19T10:05:29.278Z,15.80
2022-08-19T10:08:02.368Z,15.50
2022-08-19T10:10:39.944Z,14.05
2022-08-19T10:13:14.042Z,14.65
2022-08-19T10:15:47.521Z,15.25
2022-08-19T10:18:20.077Z,13.48
2022-08-19T10:20:52.704Z,17.55
2022-08-19T10:23:24.496Z,14.73
2022-08-19T10:25:57.851Z,14.32
2022-08-19T10:28:28.830Z,16.27
2022-08-19T10:31:00.636Z,14.48
2022-08-19T10:33:38.688Z,17.23
2022-08-19T10:36:26.604Z,15.20
2022-08-19T10:39:02.488Z,16.02
2022-08-19T10:41:40.456Z,14.52
2022-08-19T10:44:17.506Z,17.45
2022-08-19T10:46:49.186Z,18.63
2022-08-19T10:49:20.797Z,14.73
2022-08-19T10:52:03.540Z,15.45
2022-08-19T10:54:46.087Z,17.15
2022-08-19T10:57:19.361Z,20.73
2022-08-19T10:59:49.834Z,17.70
2022-08-19T11:02:20.012Z,21.33
2022-08-19T11:04:51.799Z,20.48
2022-08-19T11:07:22.328Z,18.50
2022-08-19T11:09:52.476Z,18.50
2022-08-19T11:12:25.647Z,19.63
2022-08-19T11:14:55.835Z,19.20
2022-08-19T11:17:26.094Z,17.88
2022-08-19T11:19:56.277Z,18.35
2022-08-19T11:22:31.303Z,19.00
2022-08-19T11:25:10.879Z,20.15
2022-08-19T11:27:45.811Z,23.65
2022-08-19T11:30:17.941Z,24.10
2022-08-19T11:32:49.612Z,22.27
2022-08-19T11:35:21.067Z,21.45
2022-08-19T11:37:51.910Z,21.45
2022-08-19T11:40:22.519Z,24.27
2022-08-19T11:43:01.150Z,19.50
2022-08-19T11:45:32.630Z,21.05
2022-08-19T11:48:02.962Z,18.77
2022-08-19T11:50:35.854Z,18.05
2022-08-19T11:53:06.660Z,15.07
2022-08-19T11:55:44.183Z,18.90
2022-08-19T11:58:20.285Z,18.27
2022-08-19T12:00:50.451Z,18.17
2022-08-19T12:03:23.307Z,18.77
2022-08-19T12:05:53.623Z,20.95
2022-08-19T12:08:24.395Z,22.98
2022-08-19T12:10:54.707Z,21.85
2022-08-19T12:13:27.638Z,21.25
2022-08-19T12:15:58.047Z,20.60
2022-08-19T12:18:28.513Z,22.52
2022-08-19T12:20:58.756Z,19.17
2022-08-19T12:23:30.412Z,22.20
2022-08-19T12:26:00.924Z,21.77
2022-08-19T12:28:34.512Z,19.48
2022-08-19T12:31:04.880Z,20.48
2022-08-19T12:33:35.804Z,19.40
2022-08-19T12:36:11.590Z,17.17
2022-08-19T12:38:45.672Z,20.30
2022-08-19T12:41:20.344Z,16.75
2022-08-19T12:43:53.715Z,18.10
2022-08-19T12:46:26.219Z,14.30
2022-08-19T12:48:56.551Z,13.30
2022-08-19T12:51:28.502Z,14.73
2022-08-19T12:53:58.726Z,17.90
2022-08-19T12:56:29.139Z,15.23
2022-08-19T12:59:04.460Z,13.07
2022-08-19T13:01:34.683Z,10.40
2022-08-19T13:04:05.014Z,11.88
2022-08-19T13:06:35.193Z,12.45
2022-08-19T13:09:05.725Z,14.13
2022-08-19T13:11:36.249Z,10.20
2022-08-19T13:14:10.112Z,9.77
2022-08-19T13:16:41.355Z,9.43
2022-08-19T13:19:13.056Z,9.35
2022-08-19T13:21:43.273Z,8.85
2022-08-19T13:24:13.529Z,9.18
2022-08-19T13:26:43.731Z,11.48
2022-08-19T13:29:29.025Z,12.88
2022-08-19T13:32:11.723Z,11.90
2022-08-19T13:34:49.612Z,11.82
2022-08-19T13:37:39.789Z,14.20
2022-08-19T13:40:19.229Z,13.85
2022-08-19T13:42:51.577Z,14.48
2022-08-19T13:45:28.115Z,13.68
2022-08-19T13:48:00.879Z,11.68
2022-08-19T13:50:35.014Z,10.90
2022-08-19T13:53:06.091Z,12.57
2022-08-19T13:55:37.187Z,13.48
2022-08-19T13:58:07.639Z,12.27
2022-08-19T14:00:45.242Z,12.77
2022-08-19T14:03:16.014Z,13.60
2022-08-19T14:05:47.162Z,12.60
2022-08-19T14:08:17.331Z,12.50
2022-08-19T14:10:48.318Z,13.27
2022-08-19T14:13:22.852Z,11.38
2022-08-19T14:15:56.030Z,11.35
2022-08-19T14:18:28.588Z,11.30
2022-08-19T14:20:59.468Z,11.57
2022-08-19T14:23:29.820Z,14.00
2022-08-19T14:26:08.994Z,11.98
2022-08-19T14:28:41.715Z,12.50
2022-08-19T14:31:28.977Z,12.15
2022-08-19T14:34:01.076Z,10.98
2022-08-19T14:36:33.776Z,10.88
2022-08-19T14:39:07.591Z,10.60
2022-08-19T14:41:39.944Z,11.68
2022-08-19T14:44:13.289Z,13.50
2022-08-19T14:46:49.343Z,11.20
2022-08-19T14:49:20.369Z,11.18
2022-08-19T14:51:52.932Z,9.40
2022-08-19T14:54:23.173Z,8.15
2022-08-19T14:56:55.834Z,6.97
2022-08-19T14:59:26.037Z,6.90
2022-08-19T15:02:33.798Z,8.60
2022-08-19T15:04:58.381Z,6.63
2022-08-19T15:07:30.441Z,4.97
2022-08-19T15:10:02.073Z,5.68
2022-08-19T15:12:32.408Z,7.68
2022-08-19T15:15:05.043Z,4.35
2022-08-19T15:17:45.019Z,7.68
2022-08-19T15:20:24.112Z,10.88
2022-08-19T15:22:54.474Z,3.90
2022-08-19T15:25:24.772Z,5.03
2022-08-19T15:27:55.179Z,3.17
2022-08-19T15:30:30.287Z,7.55
2022-08-19T15:33:03.633Z,5.18
2022-08-19T15:35:34.011Z,4.53
2022-08-19T15:38:04.284Z,3.97
2022-08-19T15:40:34.515Z,6.78
2022-08-19T15:43:04.979Z,3.28
2022-08-19T15:45:35.346Z,3.20
2022-08-19T15:48:08.786Z,3.97
2022-08-19T15:50:40.087Z,4.15
2022-08-19T15:53:13.595Z,5.65
2022-08-19T15:55:49.444Z,3.30
2022-08-19T15:58:32.279Z,3.60
2022-08-19T16:01:18.832Z,3.08
2022-08-19T16:04:14.078Z,3.60
2022-08-19T16:06:48.827Z,7.53
2022-08-19T16:09:26.966Z,3.08
2022-08-19T16:12:01.721Z,6.32
2022-08-19T16:14:35.269Z,4.88
2022-08-19T16:17:05.937Z,5.38
2022-08-19T16:19:38.767Z,5.35
2022-08-19T16:22:10.069Z,4.10
2022-08-19T16:24:40.557Z,4.35
2022-08-19T16:27:11.491Z,2.67
2022-08-19T16:29:41.685Z,3.33
2022-08-19T16:32:16.126Z,2.95
2022-08-19T16:34:50.604Z,3.05
2022-08-19T16:37:23.216Z,3.17
2022-08-19T16:39:54.601Z,4.55
2022-08-19T16:42:24.840Z,2.83
2022-08-19T16:44:55.163Z,2.55
2022-08-19T16:47:25.392Z,2.53
2022-08-19T16:49:58.144Z,2.67
2022-08-19T16:52:29.344Z,2.95
2022-08-19T16:55:02.062Z,5.20
2022-08-19T16:57:34.735Z,3.47
2022-08-19T17:00:10.252Z,4.40
2022-08-19T17:02:41.391Z,3.58
2022-08-19T17:05:15.222Z,5.22
2022-08-19T17:07:45.484Z,3.33
2022-08-19T17:10:15.703Z,5.22
2022-08-19T17:12:45.899Z,5.63
2022-08-19T17:15:16.076Z,3.05
2022-08-19T17:17:46.325Z,5.30
2022-08-19T17:22:48.064Z,4.65
2022-08-19T17:25:18.262Z,5.25
2022-08-19T17:27:48.500Z,7.38
2022-08-19T17:30:18.727Z,4.53
2022-08-19T17:32:49.230Z,5.75
2022-08-19T17:35:24.363Z,5.88
2022-08-19T17:37:58.500Z,4.00
2022-08-19T17:40:29.931Z,4.00
2022-08-19T17:43:00.492Z,7.20
2022-08-19T17:45:30.994Z,4.30
2022-08-19T17:48:01.465Z,4.47
2022-08-19T17:50:33.005Z,3.88
2022-08-19T17:53:07.823Z,6.35
2022-08-19T17:55:43.797Z,6.18
2022-08-19T17:58:20.701Z,4.35
2022-08-19T18:00:55.596Z,3.90
2022-08-19T18:03:29.401Z,5.47
2022-08-19T18:06:00.032Z,3.67
2022-08-19T18:08:33.389Z,4.30
2022-08-19T18:11:03.862Z,3.85
2022-08-19T18:13:34.173Z,2.95
2022-08-19T18:16:05.530Z,3.15
2022-08-19T18:18:35.732Z,2.72
2022-08-19T18:21:06.603Z,2.85
2022-08-19T18:23:45.045Z,4.25
2022-08-19T18:26:16.190Z,4.07
2022-08-19T18:28:49.747Z,4.15
2022-08-19T18:31:21.220Z,8.82
2022-08-19T18:33:52.584Z,4.72
2022-08-19T18:36:43.610Z,3.38
2022-08-19T18:39:29.356Z,5.03
2022-08-19T18:42:12.259Z,4.68
2022-08-19T18:44:59.860Z,3.10
2022-08-19T18:47:42.896Z,4.55
2022-08-19T18:50:13.885Z,3.50
2022-08-19T18:52:46.393Z,5.07
2022-08-19T18:55:19.433Z,4.22
2022-08-19T18:57:50.766Z,4.40
2022-08-19T19:00:25.795Z,3.42
2022-08-19T19:02:56.036Z,4.35
2022-08-19T19:05:27.585Z,5.65
2022-08-19T19:08:00.580Z,3.58
2022-08-19T19:10:33.436Z,4.75
2022-08-19T19:13:03.857Z,5.20
2022-08-19T19:15:35.069Z,3.50
2022-08-19T19:18:07.585Z,6.15
2022-08-19T19:20:40.120Z,3.60
2022-08-19T19:23:10.818Z,5.15
2022-08-19T19:25:51.083Z,4.32
2022-08-19T19:28:25.716Z,4.13
2022-08-19T19:31:00.370Z,3.50
2022-08-19T19:33:31.430Z,3.38
2022-08-19T19:36:01.710Z,4.97
2022-08-19T19:38:31.941Z,4.47
2022-08-19T19:41:04.882Z,3.55
2022-08-19T19:43:40.857Z,3.05
2022-08-19T19:46:12.411Z,4.60
2022-08-19T19:48:42.542Z,3.33
2022-08-19T19:51:12.729Z,3.78
2022-08-19T19:53:43.223Z,3.10
2022-08-19T19:56:16.628Z,3.55
2022-08-19T19:58:50.498Z,2.90
2022-08-19T20:01:24.099Z,3.50
2022-08-19T20:03:58.886Z,3.60
2022-08-19T20:06:30.260Z,3.40
2022-08-19T20:09:19.478Z,2.97
2022-08-19T20:11:56.139Z,12.77
2022-08-19T20:14:31.473Z,3.15
2022-08-19T20:17:03.231Z,3.50
2022-08-19T20:19:37.558Z,2.60
2022-08-19T20:22:09.405Z,2.90
2022-08-19T20:24:42.598Z,4.10
2022-08-19T20:27:15.655Z,2.20
2022-08-19T20:29:47.656Z,2.20
2022-08-19T20:32:18.821Z,1.85
2022-08-19T20:34:51.888Z,2.00
2022-08-19T20:37:22.626Z,2.00
2022-08-19T20:39:52.993Z,2.38
2022-08-19T20:42:25.855Z,1.80
2022-08-19T20:44:56.025Z,1.70
2022-08-19T20:47:28.826Z,1.58
2022-08-19T20:49:58.944Z,2.65
2022-08-19T20:52:29.118Z,1.75
2022-08-19T20:54:59.407Z,1.63
2022-08-19T20:57:32.231Z,1.33
2022-08-19T21:00:03.445Z,1.30
2022-08-19T21:02:34.372Z,1.30
2022-08-19T21:05:04.644Z,1.75
2022-08-19T21:07:39.349Z,1.15
2022-08-19T21:10:11.537Z,1.20
2022-08-19T21:12:44.523Z,1.42
2022-08-19T21:15:15.525Z,1.33
2022-08-19T21:17:46.604Z,1.63
2022-08-19T21:20:17.636Z,1.50
2022-08-19T21:22:49.640Z,1.50
2022-08-19T21:25:21.505Z,1.77
2022-08-19T21:27:54.338Z,1.65
2022-08-19T21:30:24.799Z,1.60
2022-08-19T21:32:55.052Z,2.00
2022-08-19T21:35:26.197Z,1.52
2022-08-19T21:37:57.535Z,1.50
2022-08-19T21:40:29.407Z,1.60
2022-08-19T21:43:12.827Z,2.67
2022-08-19T21:45:46.391Z,2.55
2022-08-19T21:48:20.329Z,1.85
2022-08-19T21:50:51.399Z,1.60
2022-08-19T21:53:22.915Z,3.55
2022-08-19T21:55:57.387Z,1.52
2022-08-19T21:58:30.648Z,1.60
2022-08-19T22:01:05.920Z,2.38
2022-08-19T22:03:37.604Z,4.05
2022-08-19T22:06:09.411Z,1.60
2022-08-19T22:08:41.844Z,1.70
2022-08-19T22:11:13.100Z,1.90
2022-08-19T22:13:46.716Z,1.63
2022-08-19T22:16:18.214Z,2.33
2022-08-19T22:18:48.419Z,1.80
2022-08-19T22:21:29.386Z,1.55
2022-08-19T22:24:10.283Z,2.28
2022-08-19T22:26:42.008Z,1.40
2022-08-19T22:29:17.204Z,1.75
2022-08-19T22:31:54.648Z,1.65
2022-08-19T22:34:31.317Z,1.48
2022-08-19T22:37:01.592Z,1.70
2022-08-19T22:39:31.752Z,3.17
2022-08-19T22:42:01.945Z,1.67
2022-08-19T22:44:34.965Z,3.00
2022-08-19T22:47:05.270Z,1.65
2022-08-19T22:49:35.452Z,1.63
2022-08-19T22:52:17.771Z,1.63
2022-08-19T22:54:49.401Z,2.00
2022-08-19T22:57:22.191Z,1.90
2022-08-19T23:00:00.977Z,2.75
2022-08-19T23:02:38.449Z,2.17
2022-08-19T23:05:13.903Z,1.73
2022-08-19T23:07:44.420Z,1.77
2022-08-19T23:10:29.591Z,1.90
2022-08-19T23:13:02.377Z,2.00
2022-08-19T23:15:37.608Z,2.10
2022-08-19T23:18:10.649Z,2.15
2022-08-19T23:20:44.739Z,1.90
2022-08-19T23:23:19.799Z,1.90
2022-08-19T23:25:52.665Z,1.90
2022-08-19T23:28:36.091Z,1.70
2022-08-19T23:31:13.454Z,2.20
2022-08-19T23:33:51.612Z,2.65
2022-08-19T23:36:23.974Z,2.30
2022-08-19T23:38:54.762Z,2.08
2022-08-19T23:41:27.244Z,2.40
2022-08-19T23:43:57.601Z,2.45
2022-08-19T23:46:42.179Z,4.45
2022-08-19T23:49:24.351Z,2.50
2022-08-19T23:51:55.634Z,2.65
2022-08-19T23:54:34.347Z,2.80
2022-08-19T23:57:14.538Z,3.80
2022-08-19T23:59:47.592Z,2.88
